Time;durP1;ratioP1;P1;durP2;ratioP2;P2;SDS_P1;SDS_P2;PMS_P1;PMS_P2;Temp;Humidity;BMP_temperature;BMP_pressure;BME280_temperature;BME280_humidity;BME280_pressure;Samples;Min_cycle;Max_cycle;Signal;HPM_P1;HPM_P2
2023/01/16 00:01:10;;;;;;;1.80;0.90;;;7.00;99.90;;;;;;7386516;19;20534;-75
2023/01/16 00:03:36;;;;;;;1.57;0.80;;;7.10;99.90;;;;;;7386980;19;20622;-74
2023/01/16 00:06:02;;;;;;;3.77;0.87;;;7.10;99.90;;;;;;7387610;19;20155;-74
2023/01/16 00:08:28;;;;;;;3.60;0.90;;;7.00;99.90;;;;;;7383421;19;20131;-75
2023/01/16 00:10:53;;;;;;;2.63;0.67;;;7.10;99.90;;;;;;7387941;19;20139;-74
2023/01/16 00:13:19;;;;;;;1.63;0.90;;;7.10;99.90;;;;;;7386596;19;20532;-74
2023/01/16 00:15:48;;;;;;;2.10;0.70;;;7.10;99.90;;;;;;7387894;19;20175;-74
2023/01/16 00:18:13;;;;;;;1.67;0.70;;;7.10;99.90;;;;;;7386865;19;20135;-74
2023/01/16 00:20:39;;;;;;;4.20;0.73;;;7.20;99.90;;;;;;7386056;19;20154;-75
2023/01/16 00:23:05;;;;;;;3.07;0.90;;;7.30;99.90;;;;;;7386146;19;20599;-74
2023/01/16 00:25:31;;;;;;;2.47;0.83;;;7.20;99.90;;;;;;7387841;19;20143;-74
2023/01/16 00:27:57;;;;;;;2.63;0.77;;;7.20;99.90;;;;;;7386373;19;20488;-74
2023/01/16 00:30:24;;;;;;;1.93;0.67;;;7.30;99.90;;;;;;7396247;19;20158;-75
2023/01/16 00:32:50;;;;;;;2.47;0.70;;;7.20;99.90;;;;;;7393870;19;20146;-74
2023/01/16 00:35:16;;;;;;;2.17;0.70;;;7.30;99.90;;;;;;7394708;19;20138;-75
2023/01/16 00:37:41;;;;;;;2.67;1.03;;;7.30;99.90;;;;;;7393909;19;20180;-74
2023/01/16 00:40:08;;;;;;;2.97;0.73;;;7.30;99.90;;;;;;7394385;19;20154;-74
2023/01/16 00:42:34;;;;;;;3.00;1.10;;;7.30;99.90;;;;;;7394845;19;20147;-75
2023/01/16 00:45:00;;;;;;;3.23;1.20;;;7.30;99.90;;;;;;7393522;19;20155;-74
2023/01/16 00:47:25;;;;;;;0.90;0.77;;;7.10;99.90;;;;;;7388075;19;20591;-75
2023/01/16 00:49:51;;;;;;;5.90;0.97;;;7.30;99.90;;;;;;7396808;19;20166;-75
2023/01/16 00:52:17;;;;;;;2.17;0.93;;;7.30;99.90;;;;;;7393717;19;20218;-74
2023/01/16 00:54:43;;;;;;;3.90;1.47;;;7.20;99.90;;;;;;7392549;19;20529;-75
2023/01/16 00:57:09;;;;;;;1.57;0.80;;;7.30;99.90;;;;;;7388750;19;20166;-74
2023/01/16 00:59:34;;;;;;;3.83;1.07;;;7.30;99.90;;;;;;7393945;19;20358;-74
2023/01/16 01:02:00;;;;;;;1.77;0.93;;;7.20;99.90;;;;;;7392844;19;20135;-74
2023/01/16 01:04:28;;;;;;;2.13;1.07;;;7.30;99.90;;;;;;7391743;19;20142;-74
2023/01/16 01:06:54;;;;;;;3.63;0.80;;;7.30;99.90;;;;;;7392943;19;20171;-74
2023/01/16 01:09:19;;;;;;;2.03;0.93;;;7.30;99.90;;;;;;7391301;19;20957;-74
2023/01/16 01:11:45;;;;;;;1.27;0.57;;;7.30;99.90;;;;;;7393535;19;20145;-75
2023/01/16 01:14:11;;;;;;;2.67;1.10;;;7.20;99.90;;;;;;7393170;19;20473;-75
2023/01/16 01:16:36;;;;;;;2.47;0.93;;;7.20;99.90;;;;;;7393509;19;20142;-74
2023/01/16 01:19:02;;;;;;;1.60;0.73;;;7.10;99.90;;;;;;7393164;19;20138;-74
2023/01/16 01:21:28;;;;;;;3.97;1.30;;;7.10;99.90;;;;;;7392767;19;20155;-75
2023/01/16 01:23:56;;;;;;;2.83;1.10;;;7.20;99.90;;;;;;7393527;19;20137;-75
2023/01/16 01:26:22;;;;;;;2.40;0.70;;;7.20;99.90;;;;;;7392480;19;20143;-74
2023/01/16 01:28:47;;;;;;;1.20;0.50;;;7.30;99.90;;;;;;7391915;19;20174;-74
2023/01/16 01:31:13;;;;;;;4.33;0.73;;;7.20;99.90;;;;;;7390660;19;20158;-74
2023/01/16 01:33:40;;;;;;;1.27;0.57;;;7.10;99.90;;;;;;7392293;19;20166;-74
2023/01/16 01:36:06;;;;;;;0.87;0.53;;;7.10;99.90;;;;;;7393235;19;20154;-74
2023/01/16 01:38:33;;;;;;;1.50;0.70;;;7.20;99.90;;;;;;7394621;19;20146;-74
2023/01/16 01:40:59;;;;;;;1.73;0.70;;;6.90;99.90;;;;;;7394329;19;20135;-75
2023/01/16 01:43:49;;;;;;;1.07;0.63;;;7.00;99.90;;;;;;7394338;19;20138;-74
2023/01/16 01:46:20;;;;;;;0.97;0.43;;;7.00;99.90;;;;;;7392459;19;20551;-75
2023/01/16 01:48:48;;;;;;;4.00;0.70;;;7.10;99.90;;;;;;7391694;19;20135;-74
2023/01/16 01:51:18;;;;;;;4.20;0.83;;;7.20;99.90;;;;;;7393431;19;20170;-74
2023/01/16 01:53:56;;;;;;;2.33;0.70;;;7.20;99.90;;;;;;7390933;19;20150;-74
2023/01/16 01:56:32;;;;;;;1.67;0.80;;;7.20;99.90;;;;;;7393874;19;20628;-75
2023/01/16 01:59:07;;;;;;;1.53;0.70;;;7.20;99.90;;;;;;7392204;19;20158;-75
2023/01/16 02:01:33;;;;;;;5.90;0.70;;;7.20;99.90;;;;;;7390927;19;20592;-73
2023/01/16 02:04:02;;;;;;;1.57;0.50;;;7.10;99.90;;;;;;7391835;19;20161;-75
2023/01/16 02:06:40;;;;;;;1.33;0.60;;;7.00;99.90;;;;;;7392635;19;20142;-74
2023/01/16 02:09:06;;;;;;;1.40;0.60;;;6.80;99.90;;;;;;7389059;19;20142;-75
2023/01/16 02:11:53;;;;;;;0.90;0.53;;;6.60;99.90;;;;;;7391375;19;20479;-74
2023/01/16 02:14:19;;;;;;;2.50;0.60;;;6.70;99.90;;;;;;7394271;19;20233;-75
2023/01/16 02:20:04;;;;;;;2.10;0.50;;;6.90;99.90;;;;;;7392422;19;20153;-74
2023/01/16 02:22:51;;;;;;;3.80;1.03;;;6.90;99.90;;;;;;7393325;19;20905;-74
2023/01/16 02:25:17;;;;;;;1.30;0.67;;;7.00;99.90;;;;;;7391336;19;20151;-74
2023/01/16 02:28:39;;;;;;;1.57;0.50;;;6.80;99.90;;;;;;7390234;19;20188;-73
2023/01/16 02:31:14;;;;;;;1.30;0.70;;;6.90;99.90;;;;;;7389456;19;20161;-75
2023/01/16 02:34:10;;;;;;;1.30;0.50;;;6.90;99.90;;;;;;7388712;19;20174;-75
2023/01/16 02:36:55;;;;;;;3.23;0.77;;;6.60;99.90;;;;;;7390227;19;20141;-75
2023/01/16 02:39:33;;;;;;;3.13;0.63;;;6.80;99.90;;;;;;7391915;19;20162;-73
2023/01/16 02:42:33;;;;;;;0.87;0.50;;;6.80;99.90;;;;;;7388373;19;20147;-75
2023/01/16 02:45:04;;;;;;;1.47;0.50;;;6.90;99.90;;;;;;7390089;19;20606;-75
2023/01/16 02:47:47;;;;;;;2.40;0.47;;;7.00;99.90;;;;;;7390421;19;20158;-75
2023/01/16 02:50:13;;;;;;;1.10;0.40;;;7.10;99.90;;;;;;7390595;19;20194;-74
2023/01/16 02:53:14;;;;;;;1.30;0.60;;;6.80;99.90;;;;;;7389890;19;20138;-74
2023/01/16 02:55:42;;;;;;;1.77;0.60;;;6.80;99.90;;;;;;7392148;19;20155;-75
2023/01/16 02:58:11;;;;;;;2.23;0.67;;;6.90;99.90;;;;;;7388639;19;20159;-75
2023/01/16 03:00:37;;;;;;;1.93;0.67;;;6.90;99.90;;;;;;7390163;19;20150;-75
2023/01/16 03:03:03;;;;;;;1.40;0.63;;;6.70;99.90;;;;;;7386020;19;20150;-74
2023/01/16 03:05:41;;;;;;;0.90;0.60;;;6.40;99.90;;;;;;7391241;19;20194;-75
2023/01/16 03:08:31;;;;;;;1.33;0.63;;;6.30;99.90;;;;;;7391389;19;20587;-74
2023/01/16 03:11:13;;;;;;;1.70;0.97;;;6.50;99.90;;;;;;7390765;19;20227;-75
2023/01/16 03:13:53;;;;;;;0.60;0.60;;;6.70;99.90;;;;;;7390090;19;20156;-74
2023/01/16 03:16:30;;;;;;;2.87;0.77;;;6.90;99.90;;;;;;7390926;19;20157;-75
2023/01/16 03:19:14;;;;;;;2.20;0.53;;;6.80;99.90;;;;;;7391596;19;20145;-74
2023/01/16 03:22:05;;;;;;;3.47;0.70;;;6.70;99.90;;;;;;7388382;19;20134;-74
2023/01/16 03:24:52;;;;;;;2.93;0.67;;;6.90;99.90;;;;;;7392164;19;20614;-74
2023/01/16 03:27:33;;;;;;;1.10;0.53;;;6.80;99.90;;;;;;7391184;19;20130;-75
2023/01/16 03:30:12;;;;;;;3.20;0.63;;;6.90;99.90;;;;;;7392080;19;20134;-75
2023/01/16 03:32:44;;;;;;;1.87;0.73;;;6.90;99.90;;;;;;7391721;19;20165;-76
2023/01/16 03:35:13;;;;;;;1.93;0.70;;;7.00;99.90;;;;;;7389200;19;20150;-75
2023/01/16 03:37:49;;;;;;;1.60;0.73;;;7.00;99.90;;;;;;7389664;19;20142;-76
2023/01/16 03:40:22;;;;;;;3.20;0.70;;;6.90;99.90;;;;;;7384629;19;20487;-76
2023/01/16 03:42:59;;;;;;;1.43;0.60;;;6.80;99.90;;;;;;7389594;19;20135;-74
2023/01/16 03:45:32;;;;;;;1.90;0.63;;;6.80;99.90;;;;;;7388900;19;20134;-74
2023/01/16 03:48:20;;;;;;;0.93;0.37;;;6.80;99.90;;;;;;7389597;19;20165;-74
2023/01/16 03:51:06;;;;;;;1.30;0.50;;;6.70;99.90;;;;;;7380063;19;20154;-75
2023/01/16 03:53:38;;;;;;;1.17;0.60;;;6.50;99.90;;;;;;7388712;19;20146;-74
2023/01/16 03:56:19;;;;;;;1.67;0.70;;;6.60;99.90;;;;;;7384749;19;20577;-75
2023/01/16 03:58:48;;;;;;;1.17;0.57;;;6.60;99.90;;;;;;7390347;19;20131;-73
2023/01/16 04:01:29;;;;;;;2.27;0.70;;;6.10;99.90;;;;;;7382743;19;20166;-74
2023/01/16 04:04:16;;;;;;;1.23;0.60;;;6.20;99.90;;;;;;7390808;19;20142;-74
2023/01/16 04:06:59;;;;;;;2.80;0.70;;;6.20;99.90;;;;;;7396909;19;20149;-73
2023/01/16 04:09:40;;;;;;;1.87;0.50;;;5.80;99.90;;;;;;7393028;19;20142;-73
2023/01/16 04:12:07;;;;;;;1.33;0.70;;;5.50;99.90;;;;;;7394494;19;20158;-74
2023/01/16 04:14:35;;;;;;;2.17;0.67;;;5.90;99.90;;;;;;7393825;19;20427;-74
2023/01/16 04:17:03;;;;;;;1.93;1.00;;;6.20;99.90;;;;;;7395131;19;20171;-73
2023/01/16 04:19:32;;;;;;;1.90;0.67;;;6.20;99.90;;;;;;7393963;19;20148;-74
2023/01/16 04:21:58;;;;;;;1.33;0.60;;;6.40;99.90;;;;;;7391157;19;20598;-75
2023/01/16 04:24:24;;;;;;;0.93;0.77;;;6.40;99.90;;;;;;7396182;19;20150;-74
2023/01/16 04:26:51;;;;;;;1.87;0.50;;;6.10;99.90;;;;;;7395472;19;20461;-74
2023/01/16 04:29:17;;;;;;;3.50;0.80;;;6.40;99.90;;;;;;7389038;19;20140;-74
2023/01/16 04:31:43;;;;;;;2.97;0.77;;;6.10;99.90;;;;;;7395419;19;20139;-74
2023/01/16 04:34:09;;;;;;;1.17;0.70;;;6.20;99.90;;;;;;7392759;19;20139;-74
2023/01/16 04:36:35;;;;;;;1.87;0.80;;;5.90;99.90;;;;;;7397158;19;20131;-75
2023/01/16 04:39:01;;;;;;;3.43;1.00;;;6.00;99.90;;;;;;7394239;19;20139;-74
2023/01/16 04:41:39;;;;;;;3.20;0.80;;;6.00;99.90;;;;;;7390520;19;20218;-76
2023/01/16 04:44:07;;;;;;;1.80;0.63;;;5.70;99.90;;;;;;7394653;19;20158;-73
2023/01/16 04:46:34;;;;;;;4.00;0.70;;;5.50;99.90;;;;;;7395827;19;20676;-75
2023/01/16 04:49:00;;;;;;;1.73;0.70;;;5.70;99.90;;;;;;7393310;19;20158;-75
2023/01/16 04:51:27;;;;;;;1.60;0.60;;;5.90;99.90;;;;;;7395074;19;20265;-74
2023/01/16 04:53:52;;;;;;;0.97;0.80;;;5.90;99.90;;;;;;7392255;19;20177;-74
2023/01/16 04:56:18;;;;;;;0.83;0.53;;;5.90;99.90;;;;;;7394768;19;20143;-75
2023/01/16 04:58:44;;;;;;;2.57;0.80;;;5.90;99.90;;;;;;7394390;19;20138;-74
2023/01/16 05:01:10;;;;;;;0.57;0.57;;;6.10;99.90;;;;;;7392612;19;20154;-74
2023/01/16 05:03:36;;;;;;;2.00;0.60;;;5.70;99.90;;;;;;7392816;19;20161;-74
2023/01/16 05:06:01;;;;;;;1.60;0.73;;;5.90;99.90;;;;;;7394424;19;20158;-75
2023/01/16 05:08:28;;;;;;;1.63;0.83;;;6.10;99.90;;;;;;7391835;19;20139;-74
2023/01/16 05:10:54;;;;;;;1.60;0.93;;;6.10;99.90;;;;;;7394580;19;20162;-75
2023/01/16 05:13:21;;;;;;;5.13;0.90;;;6.20;99.90;;;;;;7395231;19;20647;-75
2023/01/16 05:15:46;;;;;;;1.50;0.80;;;6.20;99.90;;;;;;7396368;19;20206;-74
2023/01/16 05:18:12;;;;;;;2.50;0.87;;;6.10;99.90;;;;;;7389749;19;20192;-76
2023/01/16 05:20:39;;;;;;;1.73;0.87;;;6.20;99.90;;;;;;7393590;19;20717;-76
2023/01/16 05:23:05;;;;;;;1.63;1.00;;;6.20;99.90;;;;;;7392606;19;20142;-74
2023/01/16 05:25:31;;;;;;;1.57;0.80;;;6.20;99.90;;;;;;7388813;19;20175;-73
2023/01/16 05:27:57;;;;;;;3.13;1.07;;;6.20;99.90;;;;;;7390979;19;20155;-74
2023/01/16 05:30:23;;;;;;;3.27;0.90;;;6.10;99.90;;;;;;7391477;19;20142;-76
2023/01/16 05:32:49;;;;;;;3.07;1.23;;;6.00;99.90;;;;;;7391860;19;20131;-75
2023/01/16 05:35:15;;;;;;;4.20;1.30;;;6.00;99.90;;;;;;7394348;19;20144;-74
2023/01/16 05:37:42;;;;;;;2.27;0.90;;;6.00;99.90;;;;;;7390994;19;20483;-73
2023/01/16 05:40:12;;;;;;;2.17;1.10;;;6.00;99.90;;;;;;7394155;19;20135;-75
2023/01/16 05:42:38;;;;;;;3.23;0.80;;;6.00;99.90;;;;;;7393369;19;20250;-75
2023/01/16 05:45:04;;;;;;;1.67;0.97;;;6.00;99.90;;;;;;7392480;19;20159;-74
2023/01/16 05:47:30;;;;;;;3.30;1.00;;;5.90;99.90;;;;;;7391844;19;20147;-74
2023/01/16 05:49:58;;;;;;;1.63;0.70;;;6.00;99.90;;;;;;7393244;19;20197;-74
2023/01/16 05:52:25;;;;;;;1.53;0.80;;;6.00;99.90;;;;;;7392096;19;20135;-76
2023/01/16 05:54:51;;;;;;;4.40;1.20;;;6.00;99.90;;;;;;7391641;19;20167;-74
2023/01/16 05:57:18;;;;;;;4.23;0.97;;;6.00;99.90;;;;;;7392949;19;20206;-75
2023/01/16 05:59:45;;;;;;;2.20;0.80;;;6.10;99.90;;;;;;7395093;19;20151;-73
2023/01/16 06:02:11;;;;;;;1.43;0.80;;;6.10;99.90;;;;;;7391406;19;20713;-74
2023/01/16 06:04:37;;;;;;;1.83;0.77;;;5.90;99.90;;;;;;7392951;19;20135;-75
2023/01/16 06:07:03;;;;;;;2.30;0.70;;;6.00;99.90;;;;;;7392019;19;20127;-74
2023/01/16 06:09:29;;;;;;;1.57;0.80;;;5.90;99.90;;;;;;7388216;19;20153;-75
2023/01/16 06:11:55;;;;;;;0.97;0.67;;;6.00;99.90;;;;;;7389177;19;20159;-74
2023/01/16 06:14:20;;;;;;;2.17;0.70;;;6.10;99.90;;;;;;7390970;19;20134;-75
2023/01/16 06:16:46;;;;;;;0.80;0.67;;;6.10;99.90;;;;;;7391859;19;20135;-74
2023/01/16 06:19:12;;;;;;;0.90;0.70;;;6.10;99.90;;;;;;7391815;19;20165;-75
2023/01/16 06:21:37;;;;;;;0.80;0.63;;;6.30;99.90;;;;;;7391630;19;20599;-74
2023/01/16 06:24:03;;;;;;;4.63;0.90;;;6.50;99.90;;;;;;7391335;19;20146;-75
2023/01/16 06:26:29;;;;;;;1.33;0.80;;;6.30;99.90;;;;;;7390833;19;20484;-75
2023/01/16 06:28:56;;;;;;;0.90;0.60;;;6.40;99.90;;;;;;7390004;19;20131;-73
2023/01/16 06:31:22;;;;;;;1.53;0.60;;;6.40;99.90;;;;;;7386964;19;20162;-75
2023/01/16 06:33:51;;;;;;;2.87;0.77;;;6.50;99.90;;;;;;7387109;19;20135;-76
2023/01/16 06:36:16;;;;;;;1.87;0.80;;;6.50;99.90;;;;;;7385822;19;20160;-76
2023/01/16 06:38:42;;;;;;;2.80;1.10;;;6.50;99.90;;;;;;7391719;19;20485;-76
2023/01/16 06:41:08;;;;;;;2.87;0.93;;;6.40;99.90;;;;;;7389045;19;20469;-75
2023/01/16 06:43:34;;;;;;;1.87;0.87;;;6.30;99.90;;;;;;7388155;19;20127;-74
2023/01/16 06:46:00;;;;;;;2.67;0.70;;;6.20;99.90;;;;;;7389422;19;20793;-74
2023/01/16 06:48:25;;;;;;;1.73;0.87;;;6.00;99.90;;;;;;7387849;19;20152;-76
2023/01/16 06:50:53;;;;;;;0.60;0.53;;;6.20;99.90;;;;;;7387706;19;20152;-75
2023/01/16 06:53:19;;;;;;;2.73;0.93;;;6.20;99.90;;;;;;7388739;19;20135;-76
2023/01/16 06:55:46;;;;;;;0.83;0.67;;;6.30;99.90;;;;;;7389938;19;20157;-73
2023/01/16 06:58:13;;;;;;;2.83;1.30;;;6.40;99.90;;;;;;7393802;19;20157;-75
2023/01/16 07:00:39;;;;;;;1.57;0.70;;;6.40;99.90;;;;;;7384905;19;20150;-74
2023/01/16 07:03:17;;;;;;;2.00;0.70;;;6.30;99.90;;;;;;7389606;19;20854;-75
2023/01/16 07:05:45;;;;;;;1.23;0.60;;;6.30;99.90;;;;;;7392258;19;20134;-74
2023/01/16 07:08:11;;;;;;;1.07;0.70;;;6.10;99.90;;;;;;7390965;19;20134;-75
2023/01/16 07:10:40;;;;;;;1.70;1.07;;;6.30;99.90;;;;;;7392496;19;20459;-75
2023/01/16 07:13:06;;;;;;;2.67;0.90;;;6.20;99.90;;;;;;7390046;19;20222;-75
2023/01/16 07:24:10;;;;;;;2.10;0.90;;;6.20;99.90;;;;;;7388481;19;20227;-74
2023/01/16 07:26:43;;;;;;;1.03;0.70;;;6.40;99.90;;;;;;7390229;19;20131;-76
2023/01/16 07:29:09;;;;;;;0.90;0.73;;;6.30;99.90;;;;;;7389074;19;20138;-75
2023/01/16 07:31:36;;;;;;;1.40;1.03;;;6.50;99.90;;;;;;7385945;19;20147;-75
2023/01/16 07:34:01;;;;;;;2.10;1.10;;;6.50;99.90;;;;;;7385796;19;20681;-75
2023/01/16 07:36:27;;;;;;;2.67;1.00;;;6.60;99.90;;;;;;7387294;19;20167;-74
2023/01/16 07:38:53;;;;;;;1.20;0.60;;;6.40;99.90;;;;;;7391942;19;20154;-74
2023/01/16 07:41:18;;;;;;;2.00;0.80;;;6.50;99.90;;;;;;7394637;19;20135;-74
2023/01/16 07:43:45;;;;;;;1.83;0.73;;;6.50;99.90;;;;;;7393106;19;20135;-73
2023/01/16 07:46:11;;;;;;;1.30;1.00;;;6.50;99.90;;;;;;7394742;19;20157;-75
2023/01/16 07:48:37;;;;;;;2.23;1.00;;;6.50;99.90;;;;;;7388048;19;20135;-75
2023/01/16 07:51:03;;;;;;;3.40;1.03;;;6.50;99.90;;;;;;7395901;19;20163;-75
2023/01/16 07:53:29;;;;;;;1.30;0.80;;;6.60;99.90;;;;;;7392764;19;20607;-76
2023/01/16 07:55:59;;;;;;;1.70;0.70;;;6.80;99.90;;;;;;7395551;19;20217;-75
2023/01/16 07:58:26;;;;;;;0.93;0.70;;;6.50;99.90;;;;;;7393395;19;20142;-74
2023/01/16 08:00:53;;;;;;;1.37;0.70;;;6.40;99.90;;;;;;7388337;19;20203;-74
2023/01/16 08:03:22;;;;;;;3.47;0.90;;;6.60;99.90;;;;;;7392361;19;20145;-74
2023/01/16 08:05:50;;;;;;;2.40;0.90;;;6.60;99.90;;;;;;7392872;19;20595;-74
2023/01/16 08:08:16;;;;;;;2.17;1.43;;;6.70;99.90;;;;;;7392215;19;20143;-74
2023/01/16 08:10:42;;;;;;;1.50;0.83;;;6.70;99.90;;;;;;7395008;19;20156;-73
2023/01/16 08:13:08;;;;;;;1.80;0.73;;;6.60;99.90;;;;;;7394253;19;20139;-77
2023/01/16 08:15:34;;;;;;;0.87;0.70;;;6.70;99.90;;;;;;7392789;19;20154;-75
2023/01/16 08:18:00;;;;;;;1.00;0.70;;;6.80;99.90;;;;;;7392297;19;20611;-74
2023/01/16 08:20:25;;;;;;;2.33;0.83;;;6.80;99.90;;;;;;7391105;19;20143;-74
2023/01/16 08:22:52;;;;;;;1.17;0.67;;;6.80;99.90;;;;;;7390863;19;20150;-74
2023/01/16 08:25:21;;;;;;;3.23;0.80;;;6.90;99.90;;;;;;7391767;19;20150;-74
2023/01/16 08:27:49;;;;;;;2.03;0.63;;;6.90;99.90;;;;;;7391580;19;20166;-74
2023/01/16 08:30:16;;;;;;;1.48;0.70;;;6.90;99.90;;;;;;7390110;19;20395;-76
2023/01/16 08:32:42;;;;;;;0.60;0.60;;;6.90;99.90;;;;;;7392750;19;20148;-74
2023/01/16 08:35:09;;;;;;;0.63;0.63;;;7.00;99.90;;;;;;7390440;19;20145;-75
2023/01/16 08:37:34;;;;;;;0.60;0.60;;;7.10;99.90;;;;;;7387541;19;20175;-74
2023/01/16 08:40:00;;;;;;;1.37;0.80;;;7.20;99.90;;;;;;7388961;19;20134;-77
2023/01/16 08:53:29;;;;;;;1.87;0.90;;;7.00;99.90;;;;;;7390129;19;20218;-76
2023/01/16 08:55:55;;;;;;;1.13;0.70;;;7.00;99.90;;;;;;7392459;19;20180;-76
2023/01/16 08:58:21;;;;;;;0.70;0.63;;;7.00;99.90;;;;;;7393167;19;20139;-77
2023/01/16 09:00:48;;;;;;;1.67;0.70;;;7.20;99.90;;;;;;7393894;19;20178;-76
2023/01/16 09:03:18;;;;;;;3.07;1.27;;;7.10;99.90;;;;;;7393080;19;20171;-78
2023/01/16 09:05:44;;;;;;;1.80;0.87;;;7.00;99.90;;;;;;7392986;19;20641;-77
2023/01/16 09:08:10;;;;;;;2.80;0.83;;;7.10;99.90;;;;;;7396159;19;20573;-75
2023/01/16 09:10:36;;;;;;;1.80;0.83;;;7.00;99.90;;;;;;7392618;19;20619;-77
2023/01/16 09:15:47;;;;;;;1.63;1.07;;;7.20;99.90;;;;;;7398953;19;20146;-75
2023/01/16 09:18:13;;;;;;;1.40;0.80;;;7.10;99.90;;;;;;7394043;19;20146;-74
2023/01/16 09:20:39;;;;;;;2.90;0.67;;;7.20;99.90;;;;;;7393236;19;20579;-76
2023/01/16 09:23:04;;;;;;;2.07;0.70;;;7.30;99.90;;;;;;7392990;19;20166;-75
2023/01/16 09:25:32;;;;;;;0.97;0.60;;;7.30;99.90;;;;;;7393220;19;20155;-76
2023/01/16 09:27:59;;;;;;;0.70;0.60;;;7.40;99.90;;;;;;7390446;19;20158;-76
2023/01/16 09:30:26;;;;;;;1.53;1.00;;;7.40;99.90;;;;;;7391867;19;20154;-78
2023/01/16 09:32:51;;;;;;;0.70;0.60;;;7.20;99.90;;;;;;7406303;19;20166;-75
2023/01/16 09:35:17;;;;;;;0.50;0.50;;;7.00;99.90;;;;;;7392621;19;20150;-77
2023/01/16 09:37:44;;;;;;;1.10;0.60;;;6.90;99.90;;;;;;7395409;19;20134;-76
2023/01/16 09:40:14;;;;;;;1.47;0.70;;;6.90;99.90;;;;;;7393090;19;20501;-76
2023/01/16 09:45:52;;;;;;;1.60;0.60;;;7.40;99.90;;;;;;7403192;19;20143;-76
2023/01/16 09:48:38;;;;;;;0.80;0.60;;;7.40;99.90;;;;;;7393035;19;20160;-76
2023/01/16 09:51:14;;;;;;;2.20;0.60;;;7.50;99.90;;;;;;7398338;19;20146;-80
2023/01/16 09:59:48;;;;;;;1.33;0.53;;;7.70;99.90;;;;;;7402514;19;20524;-77
2023/01/16 10:02:32;;;;;;;0.40;0.30;;;7.60;99.90;;;;;;7397265;19;20135;-77
2023/01/16 10:05:00;;;;;;;0.50;0.40;;;7.50;99.90;;;;;;7404627;19;20137;-76
2023/01/16 10:07:35;;;;;;;1.73;0.83;;;7.30;99.90;;;;;;7394398;19;20169;-77
2023/01/16 10:10:25;;;;;;;1.70;1.20;;;7.40;99.90;;;;;;7388980;19;20160;-76
2023/01/16 10:13:24;;;;;;;1.33;0.90;;;7.50;99.90;;;;;;7395545;19;20225;-75
2023/01/16 10:16:17;;;;;;;1.70;0.83;;;7.40;99.90;;;;;;7394209;19;20209;-78
2023/01/16 10:18:50;;;;;;;1.30;0.87;;;7.50;99.90;;;;;;7392718;19;20157;-76
2023/01/16 10:21:30;;;;;;;1.67;0.73;;;7.50;99.90;;;;;;7394576;19;20226;-77
2023/01/16 10:24:16;;;;;;;3.60;0.90;;;7.60;99.90;;;;;;7393930;19;20157;-77
2023/01/16 10:27:19;;;;;;;1.17;0.77;;;7.60;99.90;;;;;;7392389;19;20138;-76
2023/01/16 10:29:53;;;;;;;5.10;2.00;;;7.70;99.90;;;;;;7390505;19;20138;-77
2023/01/16 10:32:29;;;;;;;3.13;0.60;;;7.50;99.90;;;;;;7395563;19;20161;-76
2023/01/16 10:35:04;;;;;;;3.47;0.70;;;7.60;99.90;;;;;;7395728;19;20623;-77
2023/01/16 10:37:32;;;;;;;1.40;0.70;;;7.80;99.90;;;;;;7396427;19;20158;-76
2023/01/16 10:40:07;;;;;;;1.70;1.03;;;7.70;99.90;;;;;;7395884;19;20131;-77
2023/01/16 10:51:02;;;;;;;0.47;0.47;;;7.60;99.90;;;;;;7390570;19;20166;-76
2023/01/16 10:53:28;;;;;;;1.40;0.87;;;7.70;99.90;;;;;;7389721;19;20165;-76
2023/01/16 10:55:56;;;;;;;1.10;0.80;;;7.40;99.90;;;;;;7396848;19;20202;-76
2023/01/16 10:58:26;;;;;;;0.77;0.60;;;7.60;99.90;;;;;;7390928;19;20167;-75
2023/01/16 11:01:02;;;;;;;0.50;0.50;;;7.70;99.90;;;;;;7390478;19;20215;-76
2023/01/16 11:03:33;;;;;;;1.00;0.77;;;7.70;99.90;;;;;;7391056;19;20138;-75
2023/01/16 11:06:06;;;;;;;0.53;0.50;;;7.70;99.90;;;;;;7393719;19;20158;-78
2023/01/16 11:08:33;;;;;;;0.50;0.40;;;7.70;99.90;;;;;;7392536;19;20154;-77
2023/01/16 11:10:58;;;;;;;0.60;0.57;;;7.70;99.90;;;;;;7392069;19;20158;-77
2023/01/16 11:19:17;;;;;;;0.40;0.40;;;7.70;99.90;;;;;;7394359;19;20135;-77
2023/01/16 11:21:48;;;;;;;0.63;0.40;;;7.70;99.90;;;;;;7391016;19;20210;-76
2023/01/16 11:24:21;;;;;;;0.77;0.50;;;7.60;99.90;;;;;;7389608;19;20134;-75
2023/01/16 11:26:51;;;;;;;0.97;0.47;;;7.60;99.90;;;;;;7398625;19;20141;-75
2023/01/16 11:29:19;;;;;;;1.07;0.50;;;7.70;99.90;;;;;;7391318;19;20213;-76
2023/01/16 11:31:55;;;;;;;0.40;0.40;;;7.60;99.90;;;;;;7389632;19;20157;-74
2023/01/16 11:34:26;;;;;;;1.13;0.40;;;7.70;99.90;;;;;;7391627;19;20130;-76
2023/01/16 11:36:57;;;;;;;0.70;0.53;;;7.60;99.90;;;;;;7390368;19;20142;-77
2023/01/16 11:39:27;;;;;;;0.83;0.60;;;7.70;99.90;;;;;;7389338;19;20201;-75
2023/01/16 11:41:56;;;;;;;0.83;0.60;;;7.60;99.90;;;;;;7389378;19;20131;-76
2023/01/16 11:47:16;;;;;;;0.93;0.53;;;7.70;99.90;;;;;;7387053;19;20127;-75
2023/01/16 11:49:46;;;;;;;1.00;0.67;;;7.80;99.90;;;;;;7386071;19;20156;-75
2023/01/16 11:52:26;;;;;;;0.60;0.53;;;7.90;99.90;;;;;;7388692;19;20138;-74
2023/01/16 11:54:57;;;;;;;0.83;0.50;;;7.90;99.90;;;;;;7398473;19;20141;-78
2023/01/16 11:57:37;;;;;;;1.27;0.50;;;8.00;99.90;;;;;;7395096;19;20131;-77
2023/01/16 12:00:40;;;;;;;1.40;1.23;;;8.10;99.90;;;;;;7393157;19;20182;-77
2023/01/16 12:03:14;;;;;;;2.07;1.40;;;8.20;99.90;;;;;;7385642;19;20135;-75
2023/01/16 12:05:56;;;;;;;1.63;0.70;;;8.20;99.90;;;;;;7391241;19;20147;-75
2023/01/16 12:08:43;;;;;;;4.30;2.57;;;8.20;99.90;;;;;;7385767;19;20148;-76
2023/01/16 12:11:20;;;;;;;0.80;0.80;;;8.10;99.90;;;;;;7382664;19;20135;-74
2023/01/16 12:14:20;;;;;;;0.87;0.47;;;8.10;99.90;;;;;;7387649;19;20668;-77
2023/01/16 12:17:10;;;;;;;2.50;0.37;;;7.90;99.90;;;;;;7387586;19;20142;-75
2023/01/16 12:20:01;;;;;;;0.50;0.40;;;8.00;99.90;;;;;;7387446;19;20824;-76
2023/01/16 12:22:54;;;;;;;2.03;1.33;;;7.90;99.90;;;;;;7383399;19;20151;-75
2023/01/16 12:25:47;;;;;;;2.77;1.50;;;8.00;99.90;;;;;;7390123;19;20135;-76
2023/01/16 12:28:31;;;;;;;3.87;1.87;;;8.00;99.90;;;;;;7393386;19;20137;-75
2023/01/16 12:31:34;;;;;;;2.70;1.30;;;7.90;99.90;;;;;;7391837;19;20130;-76
2023/01/16 12:34:10;;;;;;;3.27;0.87;;;7.90;99.90;;;;;;7392475;19;20142;-76
2023/01/16 12:37:17;;;;;;;1.30;0.80;;;8.10;99.90;;;;;;7393529;19;20134;-74
2023/01/16 12:40:22;;;;;;;0.67;0.50;;;8.10;99.90;;;;;;7389710;19;20130;-74
2023/01/16 12:43:18;;;;;;;0.60;0.50;;;8.10;99.90;;;;;;7390546;19;20146;-73
2023/01/16 12:46:02;;;;;;;0.53;0.47;;;8.10;99.90;;;;;;7389916;19;20180;-75
2023/01/16 12:48:47;;;;;;;1.93;0.70;;;8.10;99.90;;;;;;7392624;19;20161;-73
2023/01/16 12:51:34;;;;;;;0.47;0.47;;;8.10;99.90;;;;;;7394079;19;20265;-75
2023/01/16 12:54:29;;;;;;;0.40;0.40;;;8.10;99.90;;;;;;7391973;19;20151;-74
2023/01/16 12:57:19;;;;;;;1.30;0.40;;;8.30;99.90;;;;;;7386847;19;20161;-74
2023/01/16 12:59:56;;;;;;;0.60;0.50;;;8.50;99.90;;;;;;7391329;19;20162;-74
2023/01/16 13:02:57;;;;;;;0.47;0.47;;;8.30;99.90;;;;;;7393912;19;20571;-73
2023/01/16 13:05:31;;;;;;;1.53;0.50;;;8.40;99.90;;;;;;7392871;19;20152;-75
2023/01/16 13:08:08;;;;;;;0.40;0.40;;;8.30;99.90;;;;;;7392224;19;20542;-75
2023/01/16 13:13:33;;;;;;;0.50;0.33;;;8.30;99.90;;;;;;7393722;19;20147;-75
2023/01/16 13:16:27;;;;;;;0.77;0.50;;;8.50;99.90;;;;;;7393895;19;20146;-75
2023/01/16 13:19:05;;;;;;;0.30;0.30;;;8.40;99.90;;;;;;7390982;19;20155;-76
2023/01/16 13:21:41;;;;;;;1.07;0.40;;;8.50;99.90;;;;;;7391459;19;20880;-75
2023/01/16 13:24:27;;;;;;;0.50;0.50;;;8.70;99.90;;;;;;7384862;19;20157;-76
2023/01/16 13:27:01;;;;;;;0.57;0.30;;;8.50;99.90;;;;;;7387718;19;20843;-74
2023/01/16 13:29:54;;;;;;;0.77;0.40;;;8.60;99.90;;;;;;7388953;19;20144;-74
2023/01/16 13:32:24;;;;;;;0.30;0.30;;;8.60;99.90;;;;;;7391098;19;20142;-76
2023/01/16 13:35:13;;;;;;;0.50;0.50;;;8.80;99.90;;;;;;7389267;19;20151;-76
2023/01/16 13:38:15;;;;;;;1.00;0.90;;;8.90;99.90;;;;;;7393474;19;20155;-75
2023/01/16 13:41:03;;;;;;;0.30;0.30;;;9.10;99.90;;;;;;7384470;19;20146;-75
2023/01/16 13:46:19;;;;;;;0.50;0.40;;;9.40;99.90;;;;;;7388564;19;20174;-74
2023/01/16 13:48:52;;;;;;;0.30;0.30;;;9.20;99.90;;;;;;7390882;19;20222;-75
2023/01/16 13:51:23;;;;;;;1.80;0.30;;;9.20;99.90;;;;;;7386307;19;20342;-75
2023/01/16 13:54:03;;;;;;;0.63;0.40;;;9.30;99.90;;;;;;7382438;19;20803;-76
2023/01/16 13:56:30;;;;;;;0.30;0.30;;;9.20;99.90;;;;;;7387709;19;20170;-76
2023/01/16 13:58:59;;;;;;;2.47;0.50;;;9.20;99.90;;;;;;7391165;19;20130;-75
2023/01/16 14:01:37;;;;;;;0.40;0.40;;;9.30;99.90;;;;;;7386265;19;20582;-75
2023/01/16 14:04:15;;;;;;;3.50;0.50;;;9.10;99.90;;;;;;7389417;19;20150;-74
2023/01/16 14:06:48;;;;;;;0.50;0.43;;;9.20;99.90;;;;;;7389750;19;20222;-75
2023/01/16 14:09:16;;;;;;;2.77;0.70;;;9.40;99.90;;;;;;7382370;19;20552;-74
2023/01/16 14:11:57;;;;;;;0.40;0.40;;;9.30;99.90;;;;;;7380868;19;20607;-75
2023/01/16 14:17:18;;;;;;;0.30;0.30;;;9.20;99.90;;;;;;7390101;19;20202;-75
2023/01/16 14:20:01;;;;;;;0.30;0.30;;;9.20;99.90;;;;;;7385310;19;20217;-76
2023/01/16 14:25:03;;;;;;;0.43;0.40;;;9.10;99.90;;;;;;7391854;19;20231;-75
2023/01/16 14:27:34;;;;;;;1.20;0.77;;;9.10;99.90;;;;;;7390918;19;20131;-76